»·PEaware :: N884WL KHND-KHII

N884WL :: KHND-KHII

FLIGHT INFORMATION

Flight Status: Arrived
Operator: Privately registered:
United States
More flights under this callsign
Pilot: Joe C. (19058)
Aircraft: EMBRAER BANDEIRANTE
(E110)
More flights by this aircraft type
Origin: KHND Henderson
United States
Destination: KHII Lake Havasu City
United States
More flights between these airports :: More routes between these airports
Route: BLD V237 EED
File this flight plan on PilotEdge
Remarks:
Altitude:
(Current/Filed)
9,000ft
Speed:
(Current/Filed)
180kts
Departed: 16-Oct-18 06:47 PM
Arrived: 16-Oct-18 07:26 PM
Distance/Time
Traveled:
93nm/0:39
Distance/Time
To Go:
Arrived

Flight Plot

Page will automatically refresh every two minutes.

Flight plan parsing failed; only flown route is shown


Map Options




Map Legend


Flown Route
Filed Route
Departure Airport
Arrival Airport
Navaid (VOR, NDB)
Fix

Horizontal Profiles

Position Reports

Time Latitude Longitude Heading Altitude Ground
Speed
16-Oct-18 18:29 35.978123 -115.137384 0 2409ft 0kts
16-Oct-18 18:30 35.978123 -115.137384 0 2409ft 0kts
16-Oct-18 18:31 35.978123 -115.137384 0 2409ft 0kts
16-Oct-18 18:32 35.978123 -115.137384 0 2409ft 0kts
16-Oct-18 18:33 35.978123 -115.137384 0 2409ft 0kts
16-Oct-18 18:34 35.978123 -115.137384 0 2409ft 0kts
16-Oct-18 18:35 35.978123 -115.137384 0 2409ft 0kts
16-Oct-18 18:36 35.978123 -115.137384 0 2409ft 0kts
16-Oct-18 18:37 35.978123 -115.137384 0 2409ft 0kts
16-Oct-18 18:38 35.978123 -115.137384 0 2409ft 0kts
16-Oct-18 18:39 35.978123 -115.137384 0 2409ft 0kts
16-Oct-18 18:40 35.978123 -115.137384 0 2409ft 0kts
16-Oct-18 18:41 35.978123 -115.137384 0 2409ft 0kts
16-Oct-18 18:42 35.978123 -115.137384 0 2409ft 0kts
16-Oct-18 18:43 35.978123 -115.137384 0 2409ft 0kts
16-Oct-18 18:44 35.978123 -115.137384 0 2409ft 0kts
16-Oct-18 18:45 35.978123 -115.137384 0 2409ft 0kts
16-Oct-18 18:46 35.975858 -115.136394 180 2420ft 23kts
16-Oct-18 18:47 35.966890 -115.136499 177 2458ft 35kts
16-Oct-18 18:48 35.963125 -115.136344 99 2473ft 0kts
16-Oct-18 18:49 35.972754 -115.135498 0 2503ft 127kts
16-Oct-18 18:50 35.977235 -115.169495 194 4307ft 136kts
16-Oct-18 18:51 35.942189 -115.180655 191 6044ft 130kts
16-Oct-18 18:52 35.907931 -115.191623 191 7609ft 126kts
16-Oct-18 18:53 35.874192 -115.202391 191 8957ft 133kts
16-Oct-18 18:54 35.828379 -115.216081 191 9007ft 197kts
16-Oct-18 18:55 35.772718 -115.232162 191 9001ft 210kts
16-Oct-18 18:56 35.717122 -115.234522 140 9005ft 202kts
16-Oct-18 18:57 35.671126 -115.193796 142 9000ft 204kts
16-Oct-18 18:58 35.624687 -115.155202 142 9093ft 195kts
16-Oct-18 18:59 35.579441 -115.118443 142 9088ft 195kts
16-Oct-18 19:00 35.534104 -115.081945 142 9087ft 195kts
16-Oct-18 19:01 35.488762 -115.045597 142 9079ft 195kts
16-Oct-18 19:02 35.443254 -115.009206 141 9060ft 195kts
16-Oct-18 19:03 35.405546 -114.979101 141 9039ft 194kts
16-Oct-18 19:04 35.361213 -114.943976 146 9008ft 189kts
16-Oct-18 19:05 35.317041 -114.914331 134 9011ft 182kts
16-Oct-18 19:06 35.275890 -114.877410 139 9009ft 184kts
16-Oct-18 19:07 35.233237 -114.842717 140 9009ft 184kts
16-Oct-18 19:08 35.190181 -114.808403 140 9009ft 185kts
16-Oct-18 19:09 35.147085 -114.774221 140 9009ft 185kts
16-Oct-18 19:10 35.104007 -114.740124 140 9009ft 185kts
16-Oct-18 19:11 35.060865 -114.706023 140 9009ft 185kts
16-Oct-18 19:12 35.018189 -114.672350 140 8742ft 180kts
16-Oct-18 19:13 34.976722 -114.639646 141 8047ft 177kts
16-Oct-18 19:14 34.934598 -114.606458 142 7396ft 183kts
16-Oct-18 19:15 34.892621 -114.573452 143 6794ft 180kts
16-Oct-18 19:16 34.850469 -114.540331 143 6311ft 184kts
16-Oct-18 19:17 34.806782 -114.506053 143 6338ft 190kts
16-Oct-18 19:18 34.763771 -114.473787 163 6303ft 169kts
16-Oct-18 19:19 34.752000 -114.506937 327 6319ft 131kts
16-Oct-18 19:20 34.781845 -114.533610 334 6327ft 135kts
16-Oct-18 19:21 34.791461 -114.509118 143 6023ft 151kts
16-Oct-18 19:22 34.759551 -114.471157 129 5066ft 172kts
16-Oct-18 19:23 34.717369 -114.441743 149 4009ft 172kts
16-Oct-18 19:24 34.681883 -114.419606 147 3234ft 134kts
16-Oct-18 19:25 34.644710 -114.395757 149 3153ft 137kts
16-Oct-18 19:26 34.609733 -114.384354 165 1740ft 131kts
16-Oct-18 19:27 34.580370 -114.364926 146 804ft 121kts
16-Oct-18 19:28 34.567488 -114.357674 257 743ft 19kts

Navigation Log

Ident Type
Flight plan parsing failed, navigation log unavailable